Time;durP1;ratioP1;P1;durP2;ratioP2;P2;SDS_P1;SDS_P2;PMS_P1;PMS_P2;Temp;Humidity;BMP_temperature;BMP_pressure;BME280_temperature;BME280_humidity;BME280_pressure;Samples;Min_cycle;Max_cycle;Signal;HPM_P1;HPM_P2
2020/12/22 00:00:42;;;;;;;2.67;1.60;;;10.60;99.90;;;;;;5028907;28;20034;-80
2020/12/22 00:03:08;;;;;;;2.45;1.70;;;10.60;99.90;;;;;;5026251;28;20076;-81
2020/12/22 00:05:33;;;;;;;6.93;1.60;;;10.50;99.90;;;;;;5032284;28;20063;-81
2020/12/22 00:07:59;;;;;;;5.22;1.55;;;10.50;99.90;;;;;;5022362;28;20058;-81
2020/12/22 00:10:24;;;;;;;3.20;1.73;;;10.50;99.90;;;;;;5002255;28;20044;-81
2020/12/22 00:12:50;;;;;;;2.90;1.40;;;10.50;99.90;;;;;;5003984;28;20718;-81
2020/12/22 00:15:15;;;;;;;2.55;1.70;;;10.50;99.90;;;;;;5018778;28;20515;-81
2020/12/22 00:17:43;;;;;;;3.55;1.50;;;10.50;99.90;;;;;;5016577;28;20038;-80
2020/12/22 00:20:09;;;;;;;3.17;1.60;;;10.50;99.90;;;;;;5012350;28;20371;-81
2020/12/22 00:22:34;;;;;;;3.38;1.10;;;10.50;99.90;;;;;;5013187;28;20046;-81
2020/12/22 00:25:00;;;;;;;2.35;1.27;;;10.50;99.90;;;;;;5024677;28;20042;-80
2020/12/22 00:27:26;;;;;;;3.22;1.73;;;10.60;99.90;;;;;;5018636;28;20042;-80
2020/12/22 00:29:51;;;;;;;2.97;1.38;;;10.50;99.90;;;;;;5016174;28;20033;-81
2020/12/22 00:32:17;;;;;;;1.95;1.38;;;10.60;99.90;;;;;;5014312;28;20029;-81
2020/12/22 00:34:42;;;;;;;1.80;1.30;;;10.60;99.90;;;;;;5019636;28;20042;-81
2020/12/22 00:37:08;;;;;;;1.60;0.90;;;10.50;99.90;;;;;;5012967;28;20041;-81
2020/12/22 00:39:33;;;;;;;2.75;1.30;;;10.60;99.90;;;;;;4997633;28;20041;-80
2020/12/22 00:41:59;;;;;;;3.10;1.35;;;10.60;99.90;;;;;;5019433;28;20038;-80
2020/12/22 00:44:27;;;;;;;1.63;1.20;;;10.60;99.90;;;;;;4954086;28;20049;-80
2020/12/22 00:46:53;;;;;;;2.53;1.30;;;10.60;99.90;;;;;;5002508;28;20040;-81
2020/12/22 00:49:19;;;;;;;2.13;1.48;;;10.50;99.90;;;;;;4985610;28;20030;-81
2020/12/22 00:51:44;;;;;;;1.85;1.13;;;10.40;99.90;;;;;;4972530;28;20114;-81
2020/12/22 00:54:10;;;;;;;1.95;1.17;;;10.50;99.90;;;;;;4988937;28;20037;-81
2020/12/22 00:56:35;;;;;;;2.95;1.55;;;10.70;99.90;;;;;;4961842;28;20485;-82
2020/12/22 00:59:01;;;;;;;2.05;1.02;;;10.60;99.90;;;;;;4963538;28;20034;-81
2020/12/22 01:01:30;;;;;;;2.03;0.85;;;10.60;99.90;;;;;;4958489;28;20061;-81
2020/12/22 01:03:59;;;;;;;1.63;0.80;;;10.70;99.90;;;;;;4981095;28;20053;-82
2020/12/22 01:06:26;;;;;;;1.90;1.58;;;10.80;99.90;;;;;;4973829;28;20047;-81
2020/12/22 01:08:51;;;;;;;2.08;1.67;;;10.70;99.90;;;;;;4992797;28;20064;-81
2020/12/22 01:11:17;;;;;;;2.22;1.45;;;10.80;99.90;;;;;;4964721;28;20123;-81
2020/12/22 01:13:43;;;;;;;2.17;1.20;;;10.80;99.90;;;;;;4964519;28;20076;-81
2020/12/22 01:16:08;;;;;;;1.65;0.88;;;10.80;99.90;;;;;;4980127;28;20026;-81
2020/12/22 01:18:34;;;;;;;4.50;1.05;;;10.80;99.90;;;;;;4971223;28;20079;-81
2020/12/22 01:21:00;;;;;;;2.45;1.15;;;10.90;99.90;;;;;;4956796;28;20049;-82
2020/12/22 01:23:25;;;;;;;1.63;0.82;;;10.90;99.90;;;;;;4962691;28;20042;-81
2020/12/22 01:25:51;;;;;;;2.22;0.85;;;10.90;99.90;;;;;;4966457;28;20045;-81
2020/12/22 01:28:16;;;;;;;1.38;0.75;;;10.90;99.90;;;;;;4952077;28;20611;-81
2020/12/22 01:30:42;;;;;;;1.67;1.10;;;10.90;99.90;;;;;;4956915;28;20044;-81
2020/12/22 01:33:07;;;;;;;3.63;0.80;;;10.90;99.90;;;;;;4972776;28;20046;-81
2020/12/22 01:35:33;;;;;;;0.85;0.82;;;11.00;99.90;;;;;;4974771;28;20042;-81
2020/12/22 01:37:58;;;;;;;1.17;0.88;;;10.90;99.90;;;;;;4972354;28;20501;-81
2020/12/22 01:40:24;;;;;;;1.73;0.70;;;10.90;99.90;;;;;;5008753;28;20456;-81
2020/12/22 01:42:49;;;;;;;1.00;0.57;;;10.90;99.90;;;;;;5004327;28;20030;-81
2020/12/22 01:45:15;;;;;;;2.05;0.90;;;10.90;99.90;;;;;;4974091;28;20041;-81
2020/12/22 01:47:47;;;;;;;1.63;0.73;;;10.90;99.90;;;;;;4953711;28;20146;-81
2020/12/22 01:50:15;;;;;;;1.92;0.90;;;10.90;99.90;;;;;;4981597;28;20037;-81
2020/12/22 01:52:41;;;;;;;2.10;0.90;;;10.90;99.90;;;;;;5024631;28;20457;-81
2020/12/22 01:55:07;;;;;;;0.95;0.55;;;10.90;99.90;;;;;;4975711;28;20205;-81
2020/12/22 01:57:33;;;;;;;1.02;0.60;;;10.90;99.90;;;;;;4985657;28;20060;-81
2020/12/22 01:59:58;;;;;;;1.00;0.70;;;10.80;99.90;;;;;;5026344;28;20022;-81
2020/12/22 02:02:24;;;;;;;1.15;0.70;;;10.80;99.90;;;;;;4979029;28;20042;-81
2020/12/22 02:04:50;;;;;;;1.05;0.68;;;10.80;99.90;;;;;;4993791;28;20041;-81
2020/12/22 02:07:17;;;;;;;0.80;0.63;;;10.80;99.90;;;;;;4997768;28;20032;-81
2020/12/22 02:09:43;;;;;;;0.88;0.50;;;10.80;99.90;;;;;;5011778;28;20045;-81
2020/12/22 02:12:09;;;;;;;3.40;0.70;;;10.80;99.90;;;;;;5000265;28;20030;-81
2020/12/22 02:14:34;;;;;;;1.45;0.70;;;10.90;99.90;;;;;;4991464;28;20077;-81
2020/12/22 02:17:00;;;;;;;0.85;0.40;;;10.80;99.90;;;;;;4974300;28;20038;-82
2020/12/22 02:19:26;;;;;;;1.08;0.45;;;10.90;99.90;;;;;;4982509;28;20033;-82
2020/12/22 02:21:52;;;;;;;1.42;0.60;;;11.00;99.90;;;;;;4976518;28;20629;-82
2020/12/22 02:24:18;;;;;;;1.77;0.40;;;10.90;99.90;;;;;;4973528;28;20083;-82
2020/12/22 02:26:43;;;;;;;4.22;0.65;;;10.90;99.90;;;;;;4970824;28;20523;-81
2020/12/22 02:29:10;;;;;;;1.88;0.98;;;10.90;99.90;;;;;;4993064;28;20150;-81
2020/12/22 02:31:36;;;;;;;2.10;0.70;;;11.00;99.90;;;;;;4979304;28;20060;-81
2020/12/22 02:34:01;;;;;;;0.57;0.40;;;11.00;99.90;;;;;;4968215;28;20038;-81
2020/12/22 02:36:27;;;;;;;0.55;0.30;;;11.10;99.90;;;;;;4990652;28;20034;-81
2020/12/22 02:38:52;;;;;;;0.73;0.43;;;11.20;99.90;;;;;;4963369;28;20065;-81
2020/12/22 02:41:19;;;;;;;0.40;0.30;;;11.10;99.90;;;;;;4973989;28;20042;-82
2020/12/22 02:43:44;;;;;;;0.47;0.30;;;11.10;99.90;;;;;;4964586;28;20045;-82
2020/12/22 02:46:10;;;;;;;2.97;0.20;;;11.00;99.90;;;;;;5015611;28;20128;-82
2020/12/22 02:48:36;;;;;;;0.50;0.20;;;11.30;99.90;;;;;;5001148;28;20519;-81
2020/12/22 02:51:02;;;;;;;0.20;0.20;;;11.40;99.90;;;;;;4972472;28;20045;-81
2020/12/22 02:53:28;;;;;;;0.73;0.15;;;11.40;99.90;;;;;;5000086;28;20041;-81
2020/12/22 02:55:53;;;;;;;0.13;0.10;;;11.50;99.90;;;;;;4963005;28;20144;-81
2020/12/22 02:58:19;;;;;;;0.63;0.20;;;11.70;99.90;;;;;;5000921;28;20101;-81
2020/12/22 03:00:44;;;;;;;1.77;0.35;;;11.70;99.90;;;;;;4978820;28;20175;-81
2020/12/22 03:03:11;;;;;;;0.10;0.10;;;11.70;99.90;;;;;;5001389;28;20124;-81
2020/12/22 03:05:36;;;;;;;0.25;0.20;;;11.70;99.90;;;;;;5005908;28;20381;-81
2020/12/22 03:08:03;;;;;;;0.65;0.20;;;11.70;99.90;;;;;;4997894;28;20080;-81
2020/12/22 03:10:28;;;;;;;0.40;0.20;;;11.70;99.90;;;;;;5002580;28;20040;-81
2020/12/22 03:12:54;;;;;;;0.28;0.22;;;11.70;99.90;;;;;;4992145;28;20053;-81
2020/12/22 03:15:20;;;;;;;0.22;0.22;;;11.70;99.90;;;;;;4987400;28;20030;-81
2020/12/22 03:17:45;;;;;;;0.25;0.10;;;11.70;99.90;;;;;;5007430;28;20090;-81
2020/12/22 03:20:12;;;;;;;0.20;0.10;;;11.70;99.90;;;;;;4991201;28;20089;-81
2020/12/22 03:22:38;;;;;;;0.13;0.13;;;11.70;99.90;;;;;;4978485;28;20046;-82
2020/12/22 03:25:05;;;;;;;0.20;0.20;;;11.60;99.90;;;;;;5001080;28;20041;-80
2020/12/22 03:27:32;;;;;;;0.85;0.20;;;11.50;99.90;;;;;;4998269;28;20040;-81
2020/12/22 03:29:58;;;;;;;0.10;0.10;;;11.60;99.90;;;;;;4997520;28;20049;-81
2020/12/22 03:32:23;;;;;;;0.30;0.28;;;11.80;99.90;;;;;;5015823;28;20980;-80
2020/12/22 03:34:49;;;;;;;0.85;0.40;;;11.60;99.90;;;;;;5009032;28;20030;-80
2020/12/22 03:37:19;;;;;;;0.40;0.15;;;11.80;99.90;;;;;;4995846;28;20029;-80
2020/12/22 03:39:49;;;;;;;0.20;0.15;;;11.70;99.90;;;;;;4975744;28;20526;-81
2020/12/22 03:42:14;;;;;;;0.30;0.30;;;11.60;99.90;;;;;;5018832;28;20779;-80
2020/12/22 03:44:41;;;;;;;0.30;0.20;;;11.60;99.90;;;;;;5013211;28;20026;-80
2020/12/22 03:47:06;;;;;;;2.00;0.22;;;11.70;99.90;;;;;;5020397;28;20042;-81
2020/12/22 03:49:32;;;;;;;0.43;0.20;;;11.90;99.90;;;;;;5026361;28;20059;-80
2020/12/22 03:51:58;;;;;;;0.35;0.20;;;11.90;99.90;;;;;;4995148;28;20049;-81
2020/12/22 03:54:24;;;;;;;0.40;0.30;;;12.00;99.90;;;;;;5013401;28;20330;-81
2020/12/22 03:56:50;;;;;;;0.47;0.20;;;12.00;99.90;;;;;;5017684;28;20042;-81
2020/12/22 03:59:15;;;;;;;1.25;0.13;;;12.00;99.90;;;;;;5017866;28;20033;-81
2020/12/22 04:01:41;;;;;;;0.10;0.10;;;11.90;99.90;;;;;;4992632;28;20046;-81
2020/12/22 04:04:06;;;;;;;0.35;0.10;;;11.90;99.90;;;;;;4984656;28;20046;-80
2020/12/22 04:06:32;;;;;;;1.45;0.10;;;12.00;99.90;;;;;;4997483;28;20045;-81
2020/12/22 04:08:57;;;;;;;0.60;0.25;;;11.90;99.90;;;;;;4970862;28;20061;-81
2020/12/22 04:11:23;;;;;;;0.28;0.20;;;11.80;99.90;;;;;;4987223;28;20054;-81
2020/12/22 04:13:48;;;;;;;0.20;0.20;;;11.80;99.90;;;;;;4998836;28;20095;-81
2020/12/22 04:16:14;;;;;;;0.63;0.32;;;11.80;99.90;;;;;;5001452;28;20172;-81
2020/12/22 04:18:39;;;;;;;0.30;0.10;;;11.80;99.90;;;;;;5040000;28;20026;-81
2020/12/22 04:21:05;;;;;;;2.58;0.20;;;11.90;99.90;;;;;;5011141;28;20049;-81
2020/12/22 04:23:31;;;;;;;0.20;0.15;;;11.90;99.90;;;;;;5012069;28;20684;-80
2020/12/22 04:25:56;;;;;;;0.03;0.03;;;11.80;99.90;;;;;;5035020;28;20060;-82
2020/12/22 04:28:22;;;;;;;0.45;0.20;;;11.90;99.90;;;;;;5009538;28;20051;-82
2020/12/22 04:30:48;;;;;;;0.20;0.10;;;11.80;99.90;;;;;;5036728;28;20048;-82
2020/12/22 04:33:14;;;;;;;1.75;0.30;;;11.90;99.90;;;;;;5000923;28;20499;-82
2020/12/22 04:35:40;;;;;;;0.73;0.20;;;11.90;99.90;;;;;;5012004;28;20095;-81
2020/12/22 04:38:07;;;;;;;0.30;0.15;;;11.90;99.90;;;;;;4960330;28;20042;-81
2020/12/22 04:40:34;;;;;;;0.20;0.10;;;12.00;99.90;;;;;;5005406;28;20038;-81
2020/12/22 04:43:00;;;;;;;1.30;0.10;;;12.00;99.90;;;;;;5017388;28;20030;-81
2020/12/22 04:45:27;;;;;;;0.20;0.10;;;12.00;99.90;;;;;;5015245;28;20054;-81
2020/12/22 04:47:54;;;;;;;5.05;0.35;;;11.90;99.90;;;;;;5024669;28;20113;-81
2020/12/22 04:50:19;;;;;;;0.32;0.30;;;11.90;99.90;;;;;;4978912;28;20170;-81
2020/12/22 04:52:47;;;;;;;0.30;0.30;;;11.90;99.90;;;;;;4997615;28;20045;-81
2020/12/22 04:55:13;;;;;;;0.10;0.10;;;11.90;99.90;;;;;;5009563;28;20097;-81
2020/12/22 04:57:47;;;;;;;2.53;0.45;;;11.90;99.90;;;;;;4947652;28;20037;-81
2020/12/22 05:00:13;;;;;;;4.55;0.20;;;11.90;99.90;;;;;;4988648;28;20049;-81
2020/12/22 05:02:41;;;;;;;1.45;0.30;;;11.90;99.90;;;;;;4959701;28;20061;-81
2020/12/22 05:05:07;;;;;;;0.25;0.20;;;11.90;99.90;;;;;;4984886;28;20578;-81
2020/12/22 05:07:32;;;;;;;0.55;0.10;;;11.90;99.90;;;;;;4972610;28;20124;-81
2020/12/22 05:10:05;;;;;;;0.20;0.20;;;12.00;99.90;;;;;;4974104;28;20124;-81
2020/12/22 05:12:30;;;;;;;0.30;0.20;;;12.10;99.90;;;;;;4972478;28;20107;-81
2020/12/22 05:14:56;;;;;;;0.60;0.20;;;12.10;99.90;;;;;;4974019;28;20552;-81
2020/12/22 05:17:23;;;;;;;0.40;0.25;;;12.00;99.90;;;;;;5001346;28;20037;-81
2020/12/22 05:19:50;;;;;;;1.33;0.20;;;11.90;99.90;;;;;;4974137;28;20068;-81
2020/12/22 05:22:16;;;;;;;0.82;0.10;;;11.90;99.90;;;;;;4973790;28;20026;-81
2020/12/22 05:24:42;;;;;;;0.30;0.20;;;12.00;99.90;;;;;;4980490;28;20068;-82
2020/12/22 05:27:08;;;;;;;0.43;0.08;;;12.20;99.90;;;;;;5022390;28;20057;-82
2020/12/22 05:29:34;;;;;;;0.47;0.30;;;12.20;99.90;;;;;;5001328;28;20073;-80
2020/12/22 05:32:00;;;;;;;0.52;0.20;;;12.10;99.90;;;;;;5027294;28;20018;-80
2020/12/22 05:34:27;;;;;;;0.30;0.20;;;12.20;99.90;;;;;;5029931;28;20029;-82
2020/12/22 05:36:57;;;;;;;0.50;0.10;;;12.10;99.90;;;;;;5004786;28;20042;-83
2020/12/22 05:39:24;;;;;;;0.88;0.20;;;12.20;99.90;;;;;;5029371;28;20029;-80
2020/12/22 05:41:50;;;;;;;2.33;0.20;;;12.30;99.90;;;;;;4953338;28;20052;-82
2020/12/22 05:44:15;;;;;;;3.33;0.60;;;12.30;99.90;;;;;;4992705;28;20038;-81
2020/12/22 05:46:42;;;;;;;0.10;0.10;;;12.30;99.90;;;;;;4974580;28;20042;-81
2020/12/22 05:49:09;;;;;;;0.65;0.10;;;12.40;99.90;;;;;;4986822;28;20060;-80
2020/12/22 05:51:34;;;;;;;2.25;0.57;;;12.30;99.90;;;;;;4989999;28;20026;-80
2020/12/22 05:54:07;;;;;;;0.00;0.00;;;12.30;99.90;;;;;;4986832;28;20033;-80
2020/12/22 05:56:35;;;;;;;0.30;0.10;;;12.40;99.90;;;;;;4950779;28;20132;-81
2020/12/22 05:59:01;;;;;;;0.03;0.03;;;12.30;99.90;;;;;;4959667;28;20066;-81
2020/12/22 06:01:34;;;;;;;0.50;0.20;;;12.30;99.90;;;;;;4989490;28;20085;-81
2020/12/22 06:04:02;;;;;;;0.35;0.20;;;12.40;99.90;;;;;;5005642;28;20042;-81
2020/12/22 06:06:29;;;;;;;0.57;0.10;;;12.40;99.90;;;;;;4953861;28;20049;-81
2020/12/22 06:08:55;;;;;;;3.35;0.20;;;12.40;99.90;;;;;;4977480;28;20484;-80
2020/12/22 06:11:21;;;;;;;0.40;0.28;;;12.40;99.90;;;;;;4976708;28;20049;-80
2020/12/22 06:13:48;;;;;;;1.20;0.30;;;12.40;99.90;;;;;;4971964;28;20062;-80
2020/12/22 06:16:17;;;;;;;0.20;0.13;;;12.40;99.90;;;;;;4973645;28;20087;-81
2020/12/22 06:18:47;;;;;;;1.17;0.20;;;12.50;99.90;;;;;;4934162;28;20041;-80
2020/12/22 06:21:19;;;;;;;0.30;0.13;;;12.50;99.90;;;;;;4978140;28;20046;-79
2020/12/22 06:23:46;;;;;;;0.20;0.10;;;12.50;99.90;;;;;;4997318;28;20132;-80
2020/12/22 06:26:12;;;;;;;0.10;0.10;;;12.60;99.90;;;;;;4977746;28;20049;-81
2020/12/22 06:28:38;;;;;;;0.65;0.20;;;12.70;99.90;;;;;;5019393;28;20072;-80
2020/12/22 06:31:24;;;;;;;1.73;0.20;;;12.70;99.90;;;;;;4995803;28;20052;-80
2020/12/22 06:33:50;;;;;;;3.95;0.20;;;12.70;99.90;;;;;;4949168;28;20041;-80
2020/12/22 06:36:17;;;;;;;0.70;0.17;;;12.70;99.90;;;;;;4972372;28;20105;-81
2020/12/22 06:38:55;;;;;;;6.22;0.30;;;12.60;99.90;;;;;;4980120;28;20049;-80
2020/12/22 06:41:35;;;;;;;0.63;0.30;;;12.70;99.90;;;;;;4960929;28;20140;-79
2020/12/22 06:44:29;;;;;;;1.05;0.30;;;12.60;99.90;;;;;;4983681;28;20065;-80
2020/12/22 06:46:59;;;;;;;2.13;0.08;;;12.60;99.90;;;;;;4967653;28;20107;-82
2020/12/22 06:49:49;;;;;;;5.18;0.25;;;12.70;99.90;;;;;;4973821;28;20049;-81
2020/12/22 06:52:35;;;;;;;3.40;0.30;;;12.70;99.90;;;;;;4988630;28;20041;-80
2020/12/22 06:55:06;;;;;;;0.98;0.20;;;12.80;99.90;;;;;;4945062;28;20492;-80
2020/12/22 06:57:50;;;;;;;2.85;0.10;;;12.80;99.90;;;;;;5010233;28;20030;-80
2020/12/22 07:00:26;;;;;;;1.20;0.40;;;12.80;99.90;;;;;;4974107;28;20060;-81
2020/12/22 07:02:53;;;;;;;0.32;0.22;;;12.80;99.90;;;;;;4970752;28;20137;-81
2020/12/22 07:05:38;;;;;;;0.13;0.13;;;12.80;99.90;;;;;;4958679;28;20041;-81
2020/12/22 07:08:05;;;;;;;0.28;0.20;;;12.80;99.90;;;;;;4971890;28;20034;-82
2020/12/22 07:10:31;;;;;;;0.52;0.15;;;12.80;99.90;;;;;;4977009;28;20030;-80
2020/12/22 07:12:58;;;;;;;3.20;0.30;;;12.90;99.90;;;;;;5014087;28;20122;-81
2020/12/22 07:15:31;;;;;;;0.95;0.45;;;12.90;99.90;;;;;;5020038;28;20115;-80
2020/12/22 07:18:09;;;;;;;0.50;0.30;;;12.90;99.90;;;;;;4983366;28;20049;-79
2020/12/22 07:20:36;;;;;;;0.45;0.22;;;12.80;99.90;;;;;;5023420;28;20037;-80
2020/12/22 07:23:02;;;;;;;0.55;0.20;;;12.80;99.90;;;;;;4995789;28;20068;-80
2020/12/22 07:25:29;;;;;;;0.35;0.20;;;12.90;99.90;;;;;;5006067;28;20038;-80
2020/12/22 07:27:54;;;;;;;0.47;0.15;;;12.90;99.90;;;;;;4987040;28;20047;-80
2020/12/22 07:30:20;;;;;;;3.33;0.40;;;12.90;99.90;;;;;;4979222;28;20411;-80
2020/12/22 07:32:46;;;;;;;0.32;0.20;;;13.10;99.90;;;;;;4976593;28;20168;-79
2020/12/22 07:35:12;;;;;;;1.52;0.40;;;13.10;99.90;;;;;;4979023;28;20049;-79
2020/12/22 07:37:38;;;;;;;0.63;0.40;;;13.00;99.90;;;;;;4967295;28;20061;-80
2020/12/22 07:40:12;;;;;;;0.32;0.20;;;13.00;99.90;;;;;;4977078;28;20096;-80
2020/12/22 07:42:38;;;;;;;0.55;0.30;;;13.20;99.10;;;;;;4976342;28;20030;-80
2020/12/22 07:45:07;;;;;;;2.10;0.30;;;13.20;99.20;;;;;;4975236;28;20041;-80
2020/12/22 07:47:36;;;;;;;0.45;0.20;;;13.20;98.90;;;;;;4989328;28;20051;-80
2020/12/22 07:50:16;;;;;;;0.22;0.20;;;13.30;98.00;;;;;;4994919;28;20109;-80
2020/12/22 07:52:42;;;;;;;2.08;0.40;;;13.20;98.00;;;;;;5010928;28;20515;-81
2020/12/22 07:55:08;;;;;;;0.73;0.30;;;13.30;98.10;;;;;;5003319;28;20589;-81
2020/12/22 07:57:39;;;;;;;1.70;0.20;;;13.20;98.20;;;;;;5002411;28;20073;-81
2020/12/22 08:00:09;;;;;;;1.15;0.30;;;13.30;97.90;;;;;;5020793;28;20091;-80
2020/12/22 08:02:35;;;;;;;0.73;0.40;;;13.40;97.40;;;;;;5018304;28;20049;-80
2020/12/22 08:05:10;;;;;;;0.68;0.30;;;13.40;97.10;;;;;;5020690;28;20087;-83
2020/12/22 08:07:38;;;;;;;0.73;0.20;;;13.40;96.90;;;;;;5023779;28;20030;-80
2020/12/22 08:10:12;;;;;;;1.85;0.40;;;13.30;97.30;;;;;;5026699;28;20603;-81
2020/12/22 08:12:38;;;;;;;0.43;0.30;;;13.40;96.80;;;;;;5024870;28;20083;-80
2020/12/22 08:15:05;;;;;;;0.50;0.20;;;13.30;96.90;;;;;;5006190;28;20413;-79
2020/12/22 08:17:36;;;;;;;1.48;0.25;;;13.40;96.50;;;;;;5024525;28;20040;-82
2020/12/22 08:20:03;;;;;;;1.00;0.40;;;13.50;96.40;;;;;;5031069;28;20033;-82
2020/12/22 08:22:29;;;;;;;1.67;0.35;;;13.40;96.30;;;;;;5020500;28;20142;-82
2020/12/22 08:24:56;;;;;;;0.85;0.15;;;13.50;96.30;;;;;;5022425;28;20038;-79
2020/12/22 08:27:22;;;;;;;2.50;0.32;;;13.50;96.20;;;;;;5018130;28;20030;-83
2020/12/22 08:29:48;;;;;;;0.20;0.20;;;13.50;96.40;;;;;;4997436;28;20034;-82
2020/12/22 08:32:21;;;;;;;0.90;0.65;;;13.40;96.40;;;;;;5024816;28;20040;-79
2020/12/22 08:34:47;;;;;;;1.73;0.50;;;13.50;96.30;;;;;;5024189;28;20037;-82
2020/12/22 08:37:13;;;;;;;2.28;0.40;;;13.40;96.40;;;;;;5008991;28;20049;-79
2020/12/22 08:39:40;;;;;;;0.77;0.20;;;13.50;96.20;;;;;;5022667;28;20121;-82
2020/12/22 08:42:08;;;;;;;2.60;0.30;;;13.50;96.20;;;;;;5018259;28;20045;-83
2020/12/22 08:44:34;;;;;;;0.60;0.30;;;13.40;96.60;;;;;;5022785;28;20038;-82
2020/12/22 08:47:12;;;;;;;1.73;0.60;;;13.50;96.30;;;;;;5019830;28;20409;-81
2020/12/22 08:49:38;;;;;;;1.88;0.68;;;13.50;96.30;;;;;;5010976;28;20044;-81
2020/12/22 08:52:14;;;;;;;1.95;0.28;;;13.50;96.20;;;;;;5015241;28;20038;-81
2020/12/22 08:54:41;;;;;;;0.40;0.40;;;13.50;96.20;;;;;;4996247;28;20029;-81
2020/12/22 08:57:10;;;;;;;0.60;0.30;;;13.60;95.90;;;;;;5008678;28;20864;-80
2020/12/22 08:59:36;;;;;;;0.20;0.20;;;13.70;95.70;;;;;;5010480;28;20121;-81
2020/12/22 09:02:02;;;;;;;1.00;0.20;;;13.70;95.70;;;;;;5015631;28;20117;-81
2020/12/22 09:04:29;;;;;;;1.08;0.30;;;13.70;95.60;;;;;;4994095;28;20041;-81
2020/12/22 09:06:55;;;;;;;0.17;0.13;;;13.70;96.00;;;;;;5011736;28;20256;-81
2020/12/22 09:09:30;;;;;;;0.70;0.30;;;13.60;96.50;;;;;;4993605;28;20116;-81
2020/12/22 09:12:27;;;;;;;0.45;0.25;;;13.60;96.70;;;;;;5006818;28;20732;-81
2020/12/22 09:14:56;;;;;;;1.00;0.40;;;13.60;96.70;;;;;;5000258;28;20076;-81
2020/12/22 09:17:32;;;;;;;0.55;0.40;;;13.60;96.80;;;;;;5013764;28;20034;-81
2020/12/22 09:19:59;;;;;;;2.10;0.75;;;13.50;97.10;;;;;;5019323;28;20034;-82
2020/12/22 09:22:27;;;;;;;1.38;0.20;;;13.40;97.40;;;;;;5013969;28;20042;-81
2020/12/22 09:24:53;;;;;;;0.25;0.13;;;13.50;97.20;;;;;;5012305;28;20111;-82
2020/12/22 09:27:28;;;;;;;2.67;0.50;;;13.50;97.20;;;;;;4999960;28;20034;-84
2020/12/22 09:29:54;;;;;;;0.50;0.20;;;13.50;98.00;;;;;;5015054;28;20216;-82
2020/12/22 09:32:19;;;;;;;0.60;0.30;;;13.50;97.50;;;;;;5019373;28;20926;-84
2020/12/22 09:34:45;;;;;;;0.60;0.40;;;13.50;97.80;;;;;;5017780;28;20408;-82
2020/12/22 09:37:11;;;;;;;0.75;0.35;;;13.40;98.40;;;;;;5018217;28;20026;-82
2020/12/22 09:39:37;;;;;;;1.40;0.40;;;13.40;98.70;;;;;;4999930;28;20060;-83
2020/12/22 09:42:05;;;;;;;3.00;0.40;;;13.30;99.30;;;;;;4999891;28;20044;-82
2020/12/22 09:44:30;;;;;;;0.70;0.30;;;13.30;99.20;;;;;;5019718;28;20045;-83
2020/12/22 09:46:57;;;;;;;0.63;0.30;;;13.30;99.70;;;;;;5019373;28;20559;-82
2020/12/22 09:49:24;;;;;;;1.02;0.20;;;13.30;99.90;;;;;;5015930;28;20030;-81
2020/12/22 09:51:50;;;;;;;0.93;0.47;;;13.30;99.90;;;;;;5016350;28;20645;-80
2020/12/22 09:54:16;;;;;;;3.10;0.40;;;13.20;99.90;;;;;;5012468;28;20703;-80
2020/12/22 09:56:42;;;;;;;0.15;0.10;;;13.30;99.90;;;;;;5003750;28;20056;-80
2020/12/22 09:59:08;;;;;;;1.70;0.68;;;13.30;99.90;;;;;;5014020;28;20038;-79
2020/12/22 10:01:34;;;;;;;1.00;0.30;;;13.40;99.90;;;;;;5015059;28;20060;-80
2020/12/22 10:04:00;;;;;;;0.68;0.30;;;13.40;99.90;;;;;;5014932;28;20098;-80
2020/12/22 10:06:26;;;;;;;0.30;0.20;;;13.40;99.90;;;;;;5012622;28;20413;-80
2020/12/22 10:08:53;;;;;;;3.65;0.50;;;13.50;99.90;;;;;;5017178;28;20073;-80
2020/12/22 10:11:20;;;;;;;3.33;0.32;;;13.50;99.70;;;;;;5011626;28;20037;-81
2020/12/22 10:13:46;;;;;;;0.47;0.15;;;13.50;99.90;;;;;;5015971;28;20647;-80
2020/12/22 10:16:18;;;;;;;0.35;0.30;;;13.60;99.10;;;;;;5014890;28;20038;-80
2020/12/22 10:18:43;;;;;;;0.60;0.30;;;13.70;98.70;;;;;;5011671;28;20066;-80
2020/12/22 10:21:13;;;;;;;0.65;0.30;;;13.70;98.50;;;;;;5013662;28;20057;-80
2020/12/22 10:23:40;;;;;;;3.10;0.40;;;13.80;98.50;;;;;;5019360;28;20049;-81
2020/12/22 10:26:08;;;;;;;1.33;0.30;;;13.80;98.30;;;;;;5014674;28;20124;-81
2020/12/22 10:28:35;;;;;;;0.40;0.10;;;13.90;97.00;;;;;;4997332;28;20057;-83
2020/12/22 10:31:01;;;;;;;2.50;0.20;;;14.00;97.50;;;;;;5011106;28;20038;-82
2020/12/22 10:33:27;;;;;;;2.88;0.35;;;13.90;97.20;;;;;;5012871;28;20535;-82
2020/12/22 10:35:53;;;;;;;1.10;0.28;;;14.00;97.20;;;;;;5022063;28;20041;-82
2020/12/22 10:38:19;;;;;;;0.22;0.20;;;14.00;96.70;;;;;;5003163;28;20089;-82
2020/12/22 10:40:46;;;;;;;0.70;0.30;;;14.10;95.90;;;;;;5022901;28;20072;-84
2020/12/22 10:43:11;;;;;;;2.75;0.50;;;14.10;95.90;;;;;;4985544;28;550179;-82
2020/12/22 10:45:38;;;;;;;0.65;0.30;;;14.10;95.40;;;;;;5030962;28;20047;-83
2020/12/22 10:48:05;;;;;;;0.63;0.30;;;14.20;95.50;;;;;;5030557;28;20040;-82
2020/12/22 10:50:30;;;;;;;1.58;0.20;;;14.20;95.20;;;;;;5024678;28;20046;-83
2020/12/22 10:52:56;;;;;;;2.08;0.28;;;14.20;94.90;;;;;;5027336;28;20091;-83
2020/12/22 10:55:23;;;;;;;0.80;0.20;;;14.20;94.80;;;;;;5033312;28;20033;-85
2020/12/22 10:57:49;;;;;;;1.35;0.30;;;14.20;94.70;;;;;;5031704;28;20048;-83
2020/12/22 11:00:15;;;;;;;0.38;0.20;;;14.20;94.60;;;;;;5031227;28;20049;-83
2020/12/22 11:02:40;;;;;;;1.30;0.40;;;14.20;94.70;;;;;;5032097;28;20037;-83
2020/12/22 11:05:07;;;;;;;0.95;0.38;;;14.20;94.60;;;;;;5026943;28;20050;-82
2020/12/22 11:07:42;;;;;;;2.67;0.40;;;14.20;94.20;;;;;;5028155;28;20029;-81
2020/12/22 11:10:08;;;;;;;1.42;0.45;;;14.30;94.50;;;;;;5010135;28;20041;-81
2020/12/22 11:12:33;;;;;;;0.85;0.52;;;14.30;94.10;;;;;;5022579;28;20029;-83
2020/12/22 11:14:59;;;;;;;0.20;0.20;;;14.20;94.10;;;;;;5004850;28;20040;-82
2020/12/22 11:17:25;;;;;;;1.05;0.40;;;14.30;94.30;;;;;;5022625;28;20696;-84
2020/12/22 11:19:52;;;;;;;2.08;0.40;;;14.20;94.20;;;;;;5001697;28;20058;-82
2020/12/22 11:22:17;;;;;;;1.50;0.30;;;14.20;94.10;;;;;;5021350;28;20113;-83
2020/12/22 11:24:43;;;;;;;7.95;1.00;;;14.20;94.20;;;;;;5016839;28;20034;-82
2020/12/22 11:27:08;;;;;;;0.38;0.22;;;14.20;94.30;;;;;;5019239;28;20044;-82
2020/12/22 11:29:34;;;;;;;0.60;0.30;;;14.30;94.10;;;;;;5020215;28;20783;-82
2020/12/22 11:31:59;;;;;;;0.47;0.30;;;14.30;94.00;;;;;;5025128;28;20109;-82
2020/12/22 11:34:25;;;;;;;1.38;0.50;;;14.30;94.00;;;;;;5023196;28;20056;-82
2020/12/22 11:36:52;;;;;;;0.70;0.35;;;14.30;93.80;;;;;;5025672;28;20030;-82
2020/12/22 11:39:18;;;;;;;2.20;0.32;;;14.30;93.90;;;;;;5005334;28;20026;-82
2020/12/22 11:41:43;;;;;;;0.40;0.20;;;14.30;94.10;;;;;;5021355;28;20086;-82
2020/12/22 11:44:10;;;;;;;1.20;0.40;;;14.30;94.00;;;;;;5021448;28;20111;-83
2020/12/22 11:46:36;;;;;;;0.40;0.30;;;14.30;94.20;;;;;;5020861;28;20149;-82
2020/12/22 11:49:03;;;;;;;0.98;0.40;;;14.10;94.20;;;;;;5024508;28;20458;-82
2020/12/22 11:51:28;;;;;;;1.08;0.30;;;14.10;94.50;;;;;;5009313;28;20048;-82
2020/12/22 11:53:54;;;;;;;0.75;0.32;;;14.10;94.80;;;;;;5024642;28;20552;-81
2020/12/22 11:56:19;;;;;;;1.58;0.68;;;14.10;94.50;;;;;;5024242;28;20038;-83
2020/12/22 11:58:45;;;;;;;1.48;0.45;;;14.10;94.60;;;;;;5030120;28;20698;-81
2020/12/22 12:01:10;;;;;;;0.45;0.32;;;14.20;94.60;;;;;;5033837;28;20052;-81
2020/12/22 12:03:36;;;;;;;0.80;0.30;;;14.20;94.60;;;;;;5037126;28;20095;-81
2020/12/22 12:06:02;;;;;;;1.75;0.70;;;14.30;94.40;;;;;;5028384;28;20128;-82
2020/12/22 12:08:28;;;;;;;0.35;0.30;;;14.30;94.60;;;;;;5002604;28;20041;-81
2020/12/22 12:10:53;;;;;;;0.68;0.25;;;14.30;94.30;;;;;;5009617;28;20987;-82
2020/12/22 12:13:19;;;;;;;2.20;0.40;;;14.40;94.60;;;;;;5014456;28;20044;-81
2020/12/22 12:15:44;;;;;;;0.50;0.30;;;14.40;94.40;;;;;;5017047;28;20040;-81
2020/12/22 12:18:10;;;;;;;0.20;0.20;;;14.50;94.20;;;;;;5017379;28;20049;-81
2020/12/22 12:20:35;;;;;;;0.30;0.20;;;14.60;94.00;;;;;;5015713;28;20551;-81
2020/12/22 12:23:01;;;;;;;0.50;0.32;;;14.60;94.00;;;;;;5015110;28;20042;-81
2020/12/22 12:25:27;;;;;;;1.02;0.40;;;14.60;93.80;;;;;;5020403;28;20088;-82
2020/12/22 12:27:52;;;;;;;0.70;0.45;;;14.60;94.00;;;;;;5017041;28;20022;-82
2020/12/22 12:30:18;;;;;;;0.90;0.43;;;14.70;93.90;;;;;;5010350;28;20119;-81
2020/12/22 12:32:43;;;;;;;0.70;0.70;;;14.70;93.90;;;;;;5017008;28;20048;-83
2020/12/22 12:35:09;;;;;;;0.40;0.30;;;14.70;94.00;;;;;;5013821;28;20033;-82
2020/12/22 12:37:35;;;;;;;0.25;0.20;;;14.70;93.70;;;;;;5018962;28;20042;-81
2020/12/22 12:40:00;;;;;;;0.65;0.30;;;14.70;93.80;;;;;;5018317;28;20042;-81
2020/12/22 12:42:27;;;;;;;0.55;0.30;;;14.70;94.20;;;;;;5017302;28;20042;-82
2020/12/22 12:44:53;;;;;;;0.45;0.20;;;14.60;94.50;;;;;;5016222;28;20054;-81
2020/12/22 12:47:19;;;;;;;4.43;0.30;;;14.60;94.50;;;;;;5008830;28;20048;-81